createdAt,value
2023-05-15T00:01:15.702Z,95.96
2023-05-15T00:02:47.973Z,95.93
2023-05-15T00:04:20.118Z,95.85
2023-05-15T00:05:52.916Z,95.98
2023-05-15T00:07:25.027Z,96.06
2023-05-15T00:08:57.354Z,95.95
2023-05-15T00:10:29.437Z,95.92
2023-05-15T00:12:01.631Z,95.91
2023-05-15T00:13:33.638Z,95.95
2023-05-15T00:15:06.330Z,95.96
2023-05-15T00:16:38.428Z,95.93
2023-05-15T00:18:10.707Z,95.82
2023-05-15T00:19:43.013Z,95.59
2023-05-15T00:21:15.149Z,95.43
2023-05-15T00:22:47.266Z,95.47
2023-05-15T00:24:19.477Z,95.29
2023-05-15T00:25:51.780Z,95.58
2023-05-15T00:27:23.797Z,95.48
2023-05-15T00:28:56.046Z,95.67
2023-05-15T00:30:28.600Z,95.81
2023-05-15T00:32:00.799Z,95.84
2023-05-15T00:33:33.041Z,95.72
2023-05-15T00:35:06.901Z,95.87
2023-05-15T00:36:39.048Z,95.60
2023-05-15T00:38:11.451Z,95.58
2023-05-15T00:39:43.662Z,95.61
2023-05-15T00:41:16.266Z,95.60
2023-05-15T00:42:48.827Z,95.57
2023-05-15T00:44:22.272Z,95.56
2023-05-15T00:45:54.408Z,95.50
2023-05-15T00:47:27.308Z,95.45
2023-05-15T00:48:59.509Z,95.43
2023-05-15T00:50:33.372Z,95.40
2023-05-15T00:52:08.845Z,95.89
2023-05-15T00:53:41.370Z,96.11
2023-05-15T00:55:13.545Z,96.04
2023-05-15T00:56:45.726Z,95.87
2023-05-15T00:59:50.498Z,95.89
2023-05-15T01:01:22.732Z,96.10
2023-05-15T01:02:55.104Z,96.17
2023-05-15T01:04:27.281Z,96.22
2023-05-15T01:05:59.511Z,96.02
2023-05-15T01:07:35.593Z,95.81
2023-05-15T01:09:08.703Z,95.65
2023-05-15T01:10:42.468Z,95.26
2023-05-15T01:12:17.224Z,95.33
2023-05-15T01:13:49.355Z,95.22
2023-05-15T01:15:21.722Z,94.82
2023-05-15T01:16:53.841Z,94.85
2023-05-15T01:18:32.481Z,94.61
2023-05-15T01:20:07.810Z,94.28
2023-05-15T01:22:16.216Z,93.99
2023-05-15T01:24:25.615Z,93.99
2023-05-15T01:26:06.224Z,94.42
2023-05-15T01:27:46.078Z,94.10
2023-05-15T01:29:28.231Z,94.29
2023-05-15T01:31:04.837Z,94.18
2023-05-15T01:32:58.536Z,94.01
2023-05-15T01:34:37.379Z,93.82
2023-05-15T01:36:17.273Z,93.70
2023-05-15T01:38:04.472Z,94.02
2023-05-15T01:39:39.713Z,94.12
2023-05-15T01:41:25.557Z,94.12
2023-05-15T01:43:06.590Z,94.61
2023-05-15T01:44:45.250Z,94.41
2023-05-15T01:46:20.715Z,94.14
2023-05-15T01:47:54.131Z,93.95
2023-05-15T01:49:29.211Z,93.90
2023-05-15T01:51:04.019Z,93.89
2023-05-15T01:52:39.420Z,94.10
2023-05-15T01:54:12.532Z,94.07
2023-05-15T01:55:45.697Z,94.12
2023-05-15T01:58:51.284Z,94.04
2023-05-15T02:00:24.690Z,94.41
2023-05-15T02:01:57.676Z,94.33
2023-05-15T02:03:34.349Z,94.54
2023-05-15T02:05:07.225Z,94.30
2023-05-15T02:06:40.096Z,94.21
2023-05-15T02:08:13.267Z,94.17
2023-05-15T02:09:45.905Z,94.51
2023-05-15T02:11:18.027Z,94.58
2023-05-15T02:12:50.821Z,94.58
2023-05-15T02:14:23.209Z,94.82
2023-05-15T02:15:55.355Z,94.65
2023-05-15T02:17:28.434Z,95.25
2023-05-15T02:19:00.447Z,95.49
2023-05-15T02:20:32.630Z,95.33
2023-05-15T02:22:04.865Z,95.68
2023-05-15T02:23:36.913Z,95.74
2023-05-15T02:25:09.284Z,95.39
2023-05-15T02:27:05.953Z,95.37
2023-05-15T02:28:54.280Z,95.42
2023-05-15T02:30:46.964Z,95.22
2023-05-15T02:32:44.961Z,94.95
2023-05-15T02:34:36.778Z,95.22
2023-05-15T02:36:10.414Z,95.21
2023-05-15T02:37:43.044Z,94.74
2023-05-15T02:39:16.576Z,94.49
2023-05-15T02:40:48.840Z,94.71
2023-05-15T02:42:21.757Z,94.46
2023-05-15T02:43:55.852Z,94.23
2023-05-15T02:45:28.920Z,94.15
2023-05-15T02:47:02.824Z,94.33
2023-05-15T02:48:36.295Z,94.32
2023-05-15T02:50:08.795Z,94.32
2023-05-15T02:51:41.243Z,94.28
2023-05-15T02:53:14.887Z,94.19
2023-05-15T02:54:46.983Z,94.46
2023-05-15T02:56:19.152Z,94.63
2023-05-15T02:57:51.308Z,94.77
2023-05-15T02:59:23.592Z,94.76
2023-05-15T03:00:55.761Z,94.74
2023-05-15T03:04:04.716Z,94.44
2023-05-15T03:05:36.849Z,94.40
2023-05-15T03:07:09.016Z,94.71
2023-05-15T03:08:41.288Z,94.61
2023-05-15T03:10:13.411Z,94.69
2023-05-15T03:11:45.604Z,94.87
2023-05-15T03:13:17.702Z,94.75
2023-05-15T03:14:49.946Z,94.79
2023-05-15T03:16:22.246Z,94.98
2023-05-15T03:17:54.354Z,94.87
2023-05-15T03:19:26.569Z,95.05
2023-05-15T03:20:58.733Z,95.05
2023-05-15T03:22:30.971Z,95.16
2023-05-15T03:24:03.070Z,95.05
2023-05-15T03:25:35.221Z,95.05
2023-05-15T03:27:07.334Z,95.02
2023-05-15T03:28:41.676Z,95.12
2023-05-15T03:30:14.439Z,95.26
2023-05-15T03:31:47.048Z,95.15
2023-05-15T03:33:19.302Z,95.46
2023-05-15T03:34:51.428Z,95.92
2023-05-15T03:36:23.576Z,96.11
2023-05-15T03:37:55.707Z,96.01
2023-05-15T03:39:27.784Z,96.29
2023-05-15T03:40:59.867Z,96.19
2023-05-15T03:42:31.956Z,96.19
2023-05-15T03:44:04.147Z,96.02
2023-05-15T03:45:36.840Z,95.96
2023-05-15T03:47:08.922Z,96.08
2023-05-15T03:48:41.026Z,96.09
2023-05-15T03:50:13.611Z,96.14
2023-05-15T03:51:45.888Z,96.06
2023-05-15T03:53:18.000Z,95.90
2023-05-15T03:54:50.966Z,95.94
2023-05-15T03:56:23.123Z,96.09
2023-05-15T03:57:55.326Z,95.94
2023-05-15T03:59:27.409Z,96.42
2023-05-15T04:00:59.556Z,96.03
2023-05-15T04:02:31.823Z,96.12
2023-05-15T04:04:04.357Z,96.27
2023-05-15T04:05:36.675Z,96.67
2023-05-15T04:07:08.947Z,96.63
2023-05-15T04:08:41.551Z,96.83
2023-05-15T04:10:14.054Z,96.84
2023-05-15T04:11:47.137Z,96.62
2023-05-15T04:13:19.307Z,96.75
2023-05-15T04:14:51.363Z,96.97
2023-05-15T04:16:23.714Z,96.62
2023-05-15T04:17:55.942Z,96.75
2023-05-15T04:19:28.107Z,96.73
2023-05-15T04:21:00.172Z,96.73
2023-05-15T04:22:32.337Z,96.70
2023-05-15T04:24:04.693Z,97.17
2023-05-15T04:25:36.971Z,97.15
2023-05-15T04:27:09.533Z,97.20
2023-05-15T04:28:52.298Z,97.48
2023-05-15T04:30:28.500Z,97.54
2023-05-15T04:32:00.782Z,97.38
2023-05-15T04:33:32.949Z,97.46
2023-05-15T04:35:13.757Z,97.65
2023-05-15T04:36:48.789Z,97.63
2023-05-15T04:38:21.038Z,97.47
2023-05-15T04:39:53.127Z,97.45
2023-05-15T04:41:25.223Z,97.71
2023-05-15T04:42:57.574Z,97.52
2023-05-15T04:44:29.706Z,97.72
2023-05-15T04:46:01.817Z,97.91
2023-05-15T04:47:34.193Z,97.64
2023-05-15T04:49:07.127Z,97.77
2023-05-15T04:50:39.251Z,97.88
2023-05-15T04:52:11.530Z,97.92
2023-05-15T04:53:43.655Z,98.11
2023-05-15T04:55:15.858Z,98.19
2023-05-15T04:56:47.950Z,98.34
2023-05-15T04:58:20.139Z,98.36
2023-05-15T04:59:52.388Z,98.62
2023-05-15T05:01:24.655Z,98.56
2023-05-15T05:02:56.950Z,98.44
2023-05-15T05:04:29.174Z,98.85
2023-05-15T05:06:01.468Z,98.66
2023-05-15T05:07:34.429Z,98.78
2023-05-15T05:09:06.493Z,98.65
2023-05-15T05:10:38.758Z,98.15
2023-05-15T05:12:11.230Z,98.30
2023-05-15T05:13:43.468Z,98.11
2023-05-15T05:15:18.308Z,98.13
2023-05-15T05:16:50.623Z,97.92
2023-05-15T05:18:22.745Z,97.64
2023-05-15T05:19:54.990Z,97.30
2023-05-15T05:21:27.323Z,97.13
2023-05-15T05:22:59.432Z,97.16
2023-05-15T05:24:32.503Z,97.00
2023-05-15T05:26:06.058Z,96.83
2023-05-15T05:27:38.377Z,96.83
2023-05-15T05:29:11.274Z,96.54
2023-05-15T05:30:46.651Z,96.19
2023-05-15T05:32:18.785Z,95.88
2023-05-15T05:33:51.813Z,95.50
2023-05-15T05:35:24.096Z,95.48
2023-05-15T05:36:56.750Z,95.12
2023-05-15T05:38:28.861Z,94.60
2023-05-15T05:40:01.096Z,94.65
2023-05-15T05:41:33.378Z,94.09
2023-05-15T05:43:05.842Z,93.93
2023-05-15T05:44:37.945Z,93.88
2023-05-15T05:46:13.294Z,93.42
2023-05-15T05:47:46.105Z,93.12
2023-05-15T05:49:18.253Z,93.11
2023-05-15T05:50:50.580Z,93.17
2023-05-15T05:52:22.601Z,92.88
2023-05-15T05:53:54.924Z,92.61
2023-05-15T05:55:27.445Z,92.35
2023-05-15T05:56:59.743Z,91.64
2023-05-15T05:58:31.937Z,91.26
2023-05-15T06:00:09.229Z,91.18
2023-05-15T06:01:41.380Z,91.15
2023-05-15T06:03:13.786Z,91.26
2023-05-15T06:04:46.748Z,91.09
2023-05-15T06:06:19.095Z,90.50
2023-05-15T06:07:51.277Z,90.58
2023-05-15T06:09:23.340Z,90.28
2023-05-15T06:10:55.459Z,90.23
2023-05-15T06:12:28.593Z,90.04
2023-05-15T06:14:01.137Z,89.75
2023-05-15T06:15:33.219Z,89.44
2023-05-15T06:17:05.657Z,89.34
2023-05-15T06:18:37.871Z,89.31
2023-05-15T06:20:10.405Z,89.07
2023-05-15T06:21:42.558Z,88.88
2023-05-15T06:23:14.682Z,88.53
2023-05-15T06:24:46.765Z,88.42
2023-05-15T06:26:18.909Z,87.75
2023-05-15T06:27:51.032Z,88.19
2023-05-15T06:29:23.197Z,88.04
2023-05-15T06:30:55.425Z,87.83
2023-05-15T06:32:27.693Z,87.14
2023-05-15T06:35:31.878Z,86.43
2023-05-15T06:37:04.097Z,86.20
2023-05-15T06:38:36.481Z,85.76
2023-05-15T06:40:09.274Z,85.20
2023-05-15T06:41:41.447Z,84.73
2023-05-15T06:43:13.672Z,85.19
2023-05-15T06:44:47.883Z,85.06
2023-05-15T06:46:20.157Z,85.02
2023-05-15T06:47:52.297Z,84.92
2023-05-15T06:49:25.311Z,84.59
2023-05-15T06:50:57.426Z,86.47
2023-05-15T06:52:29.720Z,86.51
2023-05-15T06:54:01.921Z,86.14
2023-05-15T06:55:35.097Z,85.29
2023-05-15T06:57:07.320Z,84.44
2023-05-15T06:58:39.488Z,84.96
2023-05-15T07:00:12.615Z,84.47
2023-05-15T07:01:44.904Z,84.86
2023-05-15T07:03:17.194Z,84.13
2023-05-15T07:04:49.321Z,83.68
2023-05-15T07:06:21.587Z,83.41
2023-05-15T07:07:53.769Z,83.05
2023-05-15T07:09:25.965Z,83.22
2023-05-15T07:10:58.128Z,82.93
2023-05-15T07:12:30.250Z,82.78
2023-05-15T07:14:02.835Z,82.80
2023-05-15T07:15:34.943Z,82.46
2023-05-15T07:17:07.162Z,81.83
2023-05-15T07:18:39.597Z,81.89
2023-05-15T07:20:12.126Z,81.23
2023-05-15T07:21:45.531Z,80.95
2023-05-15T07:23:17.464Z,81.92
2023-05-15T07:24:49.596Z,81.45
2023-05-15T07:26:32.860Z,79.16
2023-05-15T07:28:08.691Z,79.88
2023-05-15T07:29:40.808Z,79.91
2023-05-15T07:31:12.977Z,79.74
2023-05-15T07:32:45.315Z,79.41
2023-05-15T07:34:17.566Z,79.36
2023-05-15T07:35:51.322Z,80.46
2023-05-15T07:37:26.163Z,81.32
2023-05-15T07:38:58.985Z,81.10
2023-05-15T07:40:31.877Z,80.74
2023-05-15T07:42:04.141Z,80.43
2023-05-15T07:43:36.875Z,79.25
2023-05-15T07:45:09.784Z,79.84
2023-05-15T07:46:42.239Z,79.40
2023-05-15T07:48:18.278Z,78.82
2023-05-15T07:49:50.417Z,78.53
2023-05-15T07:51:22.732Z,77.50
2023-05-15T07:52:54.823Z,76.10
2023-05-15T07:54:27.351Z,76.32
2023-05-15T07:55:59.969Z,76.02
2023-05-15T07:57:32.424Z,75.58
2023-05-15T07:59:04.566Z,76.17
2023-05-15T08:00:37.292Z,76.49
2023-05-15T08:03:42.254Z,77.22
2023-05-15T08:05:14.596Z,76.83
2023-05-15T08:06:46.771Z,76.81
2023-05-15T08:08:18.851Z,77.06
2023-05-15T08:09:52.259Z,77.26
2023-05-15T08:11:24.367Z,75.78
2023-05-15T08:12:56.620Z,74.63
2023-05-15T08:14:28.890Z,75.49
2023-05-15T08:16:01.156Z,75.73
2023-05-15T08:17:33.402Z,75.83
2023-05-15T08:19:07.553Z,76.32
2023-05-15T08:20:39.641Z,77.37
2023-05-15T08:22:12.241Z,77.18
2023-05-15T08:23:44.370Z,75.82
2023-05-15T08:25:16.596Z,75.88
2023-05-15T08:26:48.697Z,75.66
2023-05-15T08:28:20.751Z,76.29
2023-05-15T08:29:53.232Z,75.85
2023-05-15T08:31:25.547Z,76.66
2023-05-15T08:32:57.794Z,76.23
2023-05-15T08:34:30.373Z,76.42
2023-05-15T08:36:02.485Z,76.12
2023-05-15T08:37:34.658Z,76.17
2023-05-15T08:39:07.757Z,76.28
2023-05-15T08:40:41.414Z,74.20
2023-05-15T08:42:22.605Z,74.83
2023-05-15T08:43:56.004Z,74.71
2023-05-15T08:45:28.444Z,75.03
2023-05-15T08:47:04.221Z,74.64
2023-05-15T08:48:38.695Z,75.01
2023-05-15T08:50:15.845Z,75.01
2023-05-15T08:51:48.795Z,75.59
2023-05-15T08:53:21.313Z,76.05
2023-05-15T08:54:54.130Z,75.65
2023-05-15T08:56:26.549Z,76.04
2023-05-15T08:57:59.402Z,76.03
2023-05-15T08:59:31.954Z,75.20
2023-05-15T09:01:04.166Z,75.04
2023-05-15T09:02:37.937Z,75.05
2023-05-15T09:04:10.532Z,75.10
2023-05-15T09:05:43.012Z,75.19
2023-05-15T09:07:16.186Z,75.02
2023-05-15T09:08:48.938Z,74.85
2023-05-15T09:10:21.681Z,75.39
2023-05-15T09:11:54.258Z,75.23
2023-05-15T09:13:26.496Z,75.31
2023-05-15T09:15:18.256Z,75.24
2023-05-15T09:16:53.719Z,75.57
2023-05-15T09:18:25.958Z,74.48
2023-05-15T09:19:58.102Z,72.79
2023-05-15T09:21:34.087Z,73.95
2023-05-15T09:23:26.219Z,74.31
2023-05-15T09:24:58.626Z,74.67
2023-05-15T09:26:30.995Z,75.53
2023-05-15T09:28:03.133Z,76.23
2023-05-15T09:29:37.479Z,76.17
2023-05-15T09:31:09.842Z,77.41
2023-05-15T09:32:42.201Z,78.67
2023-05-15T09:34:14.486Z,78.58
2023-05-15T09:35:46.692Z,78.69
2023-05-15T09:37:30.418Z,79.20
2023-05-15T09:39:03.367Z,80.62
2023-05-15T09:40:35.544Z,81.29
2023-05-15T09:42:09.000Z,81.52
2023-05-15T09:43:41.909Z,82.15
2023-05-15T09:45:19.921Z,81.79
2023-05-15T09:46:52.902Z,81.79
2023-05-15T09:48:25.236Z,82.20
2023-05-15T09:49:57.479Z,82.94
2023-05-15T09:51:29.607Z,82.95
2023-05-15T09:53:01.858Z,83.66
2023-05-15T11:32:48.741Z,73.38
2023-05-15T11:34:38.548Z,74.04
2023-05-15T11:36:10.949Z,75.02
2023-05-15T11:37:44.643Z,75.98
2023-05-15T11:39:16.821Z,75.43
2023-05-15T11:40:49.159Z,75.88
2023-05-15T11:42:21.279Z,75.98
2023-05-15T11:43:53.449Z,75.80
2023-05-15T11:45:25.607Z,76.19
2023-05-15T11:46:58.453Z,76.33
2023-05-15T11:48:42.373Z,75.12
2023-05-15T11:50:14.892Z,74.35
2023-05-15T11:51:49.120Z,73.89
2023-05-15T11:53:21.965Z,73.75
2023-05-15T11:54:54.642Z,73.79
2023-05-15T11:56:31.163Z,73.53
2023-05-15T11:58:04.656Z,73.07
2023-05-15T11:59:36.760Z,74.90
2023-05-15T12:01:11.188Z,75.48
2023-05-15T12:02:43.479Z,74.55
2023-05-15T12:04:17.685Z,76.58
2023-05-15T12:05:58.959Z,75.37
2023-05-15T12:07:32.037Z,74.87
2023-05-15T12:09:05.311Z,74.41
2023-05-15T12:10:40.577Z,73.54
2023-05-15T12:12:15.418Z,72.97
2023-05-15T12:13:52.936Z,71.75
2023-05-15T12:15:25.201Z,73.81
2023-05-15T12:17:03.249Z,76.37
2023-05-15T12:18:35.454Z,76.64
2023-05-15T12:20:12.865Z,75.84
2023-05-15T12:21:47.683Z,74.50
2023-05-15T12:23:22.022Z,73.67
2023-05-15T12:24:54.180Z,74.46
2023-05-15T12:26:27.077Z,76.51
2023-05-15T12:28:02.385Z,77.13
2023-05-15T12:29:34.500Z,76.70
2023-05-15T12:31:06.697Z,76.36
2023-05-15T12:32:39.479Z,76.92
2023-05-15T12:34:11.785Z,75.83
2023-05-15T12:35:52.378Z,76.12
2023-05-15T12:37:24.658Z,76.56
2023-05-15T12:38:57.570Z,76.63
2023-05-15T12:40:29.717Z,76.41
2023-05-15T12:42:01.852Z,76.04
2023-05-15T12:43:34.375Z,74.88
2023-05-15T12:45:16.145Z,75.78
2023-05-15T12:46:48.356Z,76.71
2023-05-15T12:48:20.785Z,76.86
2023-05-15T12:49:57.434Z,76.43
2023-05-15T12:51:30.274Z,76.52
2023-05-15T12:53:04.066Z,75.11
2023-05-15T12:54:41.450Z,71.67
2023-05-15T12:56:16.896Z,74.04
2023-05-15T12:57:49.345Z,72.44
2023-05-15T12:59:21.492Z,71.68
2023-05-15T13:00:53.824Z,72.85
2023-05-15T13:02:26.573Z,71.34
2023-05-15T13:03:59.397Z,73.72
2023-05-15T13:05:36.001Z,72.46
2023-05-15T13:07:08.079Z,71.22
2023-05-15T13:08:42.042Z,72.08
2023-05-15T13:10:14.315Z,71.97
2023-05-15T13:11:46.502Z,73.34
2023-05-15T13:13:18.757Z,73.33
2023-05-15T13:14:51.290Z,71.64
2023-05-15T13:16:30.048Z,70.48
2023-05-15T13:18:06.514Z,71.43
2023-05-15T13:19:38.739Z,72.21
2023-05-15T13:21:10.882Z,73.61
2023-05-15T13:22:43.006Z,74.06
2023-05-15T13:24:15.507Z,73.66
2023-05-15T13:25:48.037Z,72.37
2023-05-15T13:27:20.603Z,70.99
2023-05-15T13:28:52.826Z,71.39
2023-05-15T13:30:25.520Z,72.35
2023-05-15T13:31:58.002Z,70.19
2023-05-15T13:33:30.329Z,73.96
2023-05-15T13:35:03.601Z,73.92
2023-05-15T13:36:35.578Z,73.81
2023-05-15T13:38:10.394Z,73.32
2023-05-15T13:39:43.462Z,73.54
2023-05-15T13:41:15.561Z,74.08
2023-05-15T13:42:47.724Z,74.18
2023-05-15T13:44:19.798Z,74.19
2023-05-15T13:45:52.043Z,73.65
2023-05-15T13:47:24.201Z,74.19
2023-05-15T13:48:56.311Z,74.71
2023-05-15T13:50:28.540Z,75.21
2023-05-15T13:52:00.845Z,75.67
2023-05-15T13:53:32.865Z,75.77
2023-05-15T13:55:05.701Z,75.96
2023-05-15T13:56:37.747Z,75.67
2023-05-15T13:58:09.827Z,75.29
2023-05-15T13:59:41.954Z,74.90
2023-05-15T14:01:14.185Z,74.24
2023-05-15T14:02:46.454Z,73.55
2023-05-15T14:04:19.125Z,73.57
2023-05-15T14:05:51.700Z,74.06
2023-05-15T14:07:24.539Z,73.71
2023-05-15T14:08:56.623Z,74.16
2023-05-15T14:10:28.917Z,73.08
2023-05-15T14:12:01.083Z,73.09
2023-05-15T14:13:34.580Z,72.99
2023-05-15T14:15:07.249Z,73.97
2023-05-15T14:16:39.433Z,74.40
2023-05-15T14:18:11.610Z,74.40
2023-05-15T14:19:43.876Z,74.11
2023-05-15T14:21:16.183Z,73.18
2023-05-15T14:22:48.333Z,75.02
2023-05-15T14:24:20.481Z,75.91
2023-05-15T14:25:54.740Z,75.04
2023-05-15T14:27:26.788Z,74.37
2023-05-15T14:28:59.237Z,74.13
2023-05-15T14:30:31.513Z,73.19
2023-05-15T14:32:03.785Z,74.39
2023-05-15T14:33:35.927Z,74.04
2023-05-15T14:35:08.352Z,73.82
2023-05-15T14:36:40.583Z,75.01
2023-05-15T14:38:12.696Z,74.74
2023-05-15T14:39:44.959Z,74.36
2023-05-15T14:41:17.115Z,74.44
2023-05-15T14:42:49.321Z,74.90
2023-05-15T14:44:21.444Z,74.15
2023-05-15T14:45:53.686Z,74.08
2023-05-15T14:47:28.444Z,73.13
2023-05-15T14:49:00.732Z,72.58
2023-05-15T14:50:33.118Z,72.96
2023-05-15T14:52:07.262Z,73.04
2023-05-15T14:53:39.451Z,72.76
2023-05-15T14:55:11.655Z,72.74
2023-05-15T14:56:43.686Z,72.61
2023-05-15T14:58:15.859Z,72.48
2023-05-15T14:59:48.025Z,73.11
2023-05-15T15:01:20.794Z,73.25
2023-05-15T15:02:53.205Z,72.86
2023-05-15T15:04:27.032Z,73.05
2023-05-15T15:05:59.158Z,73.16
2023-05-15T15:07:31.431Z,73.01
2023-05-15T15:09:03.818Z,72.99
2023-05-15T15:10:41.110Z,72.91
2023-05-15T15:12:13.249Z,72.84
2023-05-15T15:13:45.567Z,73.18
2023-05-15T15:15:18.075Z,72.46
2023-05-15T15:16:50.333Z,72.22
2023-05-15T15:18:22.899Z,71.89
2023-05-15T15:19:55.693Z,72.44
2023-05-15T15:21:27.811Z,72.09
2023-05-15T15:23:00.616Z,71.86
2023-05-15T15:24:32.737Z,71.94
2023-05-15T15:26:04.890Z,71.79
2023-05-15T15:27:39.758Z,71.57
2023-05-15T15:29:11.941Z,72.20
2023-05-15T15:30:44.425Z,72.23
2023-05-15T15:32:16.680Z,72.05
2023-05-15T15:33:49.099Z,71.82
2023-05-15T15:35:21.200Z,71.85
2023-05-15T15:36:53.268Z,71.70
2023-05-15T15:38:25.420Z,71.89
2023-05-15T15:39:58.489Z,72.17
2023-05-15T15:41:31.470Z,72.20
2023-05-15T15:43:03.639Z,72.12
2023-05-15T15:44:35.928Z,72.25
2023-05-15T15:46:08.278Z,73.23
2023-05-15T15:47:40.581Z,73.97
2023-05-15T15:49:12.759Z,73.36
2023-05-15T15:50:44.937Z,73.79
2023-05-15T15:52:17.676Z,73.31
2023-05-15T15:53:49.757Z,73.19
2023-05-15T15:55:21.944Z,73.62
2023-05-15T15:56:54.115Z,73.43
2023-05-15T15:58:26.290Z,73.74
2023-05-15T15:59:58.687Z,73.25
2023-05-15T16:01:30.904Z,74.39
2023-05-15T16:03:03.165Z,74.17
2023-05-15T16:04:36.315Z,74.85
2023-05-15T16:06:08.424Z,75.25
2023-05-15T16:07:40.522Z,78.45
2023-05-15T16:09:12.895Z,76.67
2023-05-15T16:10:45.190Z,77.14
2023-05-15T16:12:17.278Z,77.21
2023-05-15T16:13:49.376Z,76.84
2023-05-15T16:15:23.686Z,77.95
2023-05-15T16:16:56.489Z,78.34
2023-05-15T16:18:28.818Z,77.26
2023-05-15T16:20:01.079Z,78.01
2023-05-15T16:21:33.200Z,77.78
2023-05-15T16:23:05.353Z,78.21
2023-05-15T16:24:37.825Z,78.39
2023-05-15T16:26:11.649Z,77.96
2023-05-15T16:27:43.821Z,77.85
2023-05-15T16:29:16.064Z,78.14
2023-05-15T16:30:51.450Z,78.39
2023-05-15T16:32:24.040Z,78.33
2023-05-15T16:33:56.248Z,78.11
2023-05-15T16:35:28.354Z,77.76
2023-05-15T16:37:00.461Z,78.49
2023-05-15T16:38:32.615Z,78.35
2023-05-15T16:40:05.223Z,78.22
2023-05-15T16:41:37.385Z,78.19
2023-05-15T16:43:09.653Z,78.22
2023-05-15T16:44:41.830Z,78.51
2023-05-15T16:46:14.229Z,78.68
2023-05-15T16:47:46.509Z,78.85
2023-05-15T16:49:18.785Z,78.86
2023-05-15T16:50:51.500Z,78.42
2023-05-15T16:52:23.623Z,78.65
2023-05-15T16:53:56.888Z,79.12
2023-05-15T16:55:29.896Z,78.94
2023-05-15T16:57:02.016Z,79.39
2023-05-15T16:58:34.208Z,79.68
2023-05-15T17:00:08.790Z,80.38
2023-05-15T17:01:40.981Z,81.23
2023-05-15T17:03:13.435Z,81.94
2023-05-15T17:04:45.630Z,82.11
2023-05-15T17:06:17.789Z,83.14
2023-05-15T17:07:49.873Z,83.13
2023-05-15T17:09:22.132Z,82.70
2023-05-15T17:10:54.306Z,83.07
2023-05-15T17:12:26.558Z,82.71
2023-05-15T17:13:58.619Z,82.54
2023-05-15T17:15:31.101Z,83.04
2023-05-15T17:17:03.287Z,83.13
2023-05-15T17:18:35.759Z,83.22
2023-05-15T17:20:08.534Z,83.89
2023-05-15T17:21:40.773Z,84.07
2023-05-15T17:23:13.134Z,83.71
2023-05-15T17:24:51.243Z,83.86
2023-05-15T17:26:24.135Z,84.36
2023-05-15T17:27:56.304Z,83.96
2023-05-15T17:29:28.404Z,83.84
2023-05-15T17:31:00.630Z,84.03
2023-05-15T17:32:32.795Z,84.13
2023-05-15T17:34:05.296Z,84.65
2023-05-15T17:35:37.470Z,85.02
2023-05-15T17:37:09.820Z,84.67
2023-05-15T17:38:41.923Z,84.62
2023-05-15T17:40:14.356Z,84.82
2023-05-15T17:41:47.332Z,84.66
2023-05-15T17:43:19.651Z,84.86
2023-05-15T17:44:51.864Z,85.04
2023-05-15T17:46:24.101Z,84.97
2023-05-15T17:48:02.893Z,85.24
2023-05-15T17:49:35.246Z,85.53
2023-05-15T17:51:07.365Z,85.66
2023-05-15T17:52:39.555Z,85.23
2023-05-15T17:54:11.737Z,85.14
2023-05-15T17:55:44.192Z,85.00
2023-05-15T17:57:16.422Z,85.03
2023-05-15T17:58:48.591Z,85.25
2023-05-15T18:00:20.989Z,85.20
2023-05-15T18:01:53.612Z,85.10
2023-05-15T18:03:25.958Z,85.20
2023-05-15T18:04:58.110Z,85.28
2023-05-15T18:06:32.044Z,85.37
2023-05-15T18:08:04.474Z,85.48
2023-05-15T18:09:39.468Z,85.72
2023-05-15T18:11:21.429Z,86.21
2023-05-15T18:12:54.274Z,85.98
2023-05-15T18:14:26.579Z,86.24
2023-05-15T18:15:58.813Z,86.45
2023-05-15T18:17:31.094Z,86.33
2023-05-15T18:19:03.218Z,86.36
2023-05-15T18:20:35.447Z,86.87
2023-05-15T18:22:07.686Z,86.90
2023-05-15T18:23:39.793Z,87.42
2023-05-15T18:25:11.903Z,87.44
2023-05-15T18:26:44.100Z,87.73
2023-05-15T18:28:16.206Z,87.87
2023-05-15T18:29:48.380Z,87.88
2023-05-15T18:31:20.847Z,88.14
2023-05-15T18:32:53.089Z,87.94
2023-05-15T18:34:25.251Z,88.25
2023-05-15T18:35:57.371Z,88.35
2023-05-15T18:37:29.560Z,88.30
2023-05-15T18:39:02.886Z,88.46
2023-05-15T18:40:34.933Z,88.46
2023-05-15T18:42:07.525Z,88.43
2023-05-15T18:43:39.658Z,88.28
2023-05-15T18:45:13.550Z,88.51
2023-05-15T18:46:46.007Z,88.83
2023-05-15T18:48:18.200Z,88.87
2023-05-15T18:49:50.279Z,89.11
2023-05-15T18:51:28.184Z,89.41
2023-05-15T18:53:00.324Z,89.71
2023-05-15T18:54:32.458Z,89.74
2023-05-15T18:56:04.978Z,89.95
2023-05-15T18:57:37.036Z,90.25
2023-05-15T18:59:09.216Z,90.09
2023-05-15T19:00:41.275Z,90.06
2023-05-15T19:02:13.739Z,90.09
2023-05-15T19:03:46.056Z,90.28
2023-05-15T19:05:18.353Z,90.64
2023-05-15T19:06:50.836Z,90.56
2023-05-15T19:08:23.043Z,90.34
2023-05-15T19:09:55.370Z,90.56
2023-05-15T19:11:27.771Z,90.66
2023-05-15T19:12:59.909Z,90.51
2023-05-15T19:14:33.040Z,90.69
2023-05-15T19:16:06.552Z,90.76
2023-05-15T19:17:39.266Z,90.95
2023-05-15T19:19:11.626Z,91.14
2023-05-15T19:20:43.824Z,91.35
2023-05-15T19:22:17.701Z,91.77
2023-05-15T19:23:51.177Z,92.20
2023-05-15T19:25:23.402Z,92.50
2023-05-15T19:26:55.695Z,92.58
2023-05-15T19:28:28.373Z,92.91
2023-05-15T19:30:00.621Z,93.22
2023-05-15T19:31:33.312Z,92.84
2023-05-15T19:33:05.501Z,92.98
2023-05-15T19:34:37.650Z,92.52
2023-05-15T19:36:09.960Z,92.77
2023-05-15T19:37:42.867Z,92.68
2023-05-15T19:39:15.038Z,92.81
2023-05-15T19:40:47.234Z,92.95
2023-05-15T19:42:19.398Z,92.91
2023-05-15T19:43:51.769Z,93.08
2023-05-15T19:45:23.985Z,92.70
2023-05-15T19:46:56.113Z,92.93
2023-05-15T19:48:28.496Z,92.93
2023-05-15T19:50:00.805Z,92.94
2023-05-15T19:51:34.552Z,92.95
2023-05-15T19:53:06.739Z,93.09
2023-05-15T19:54:39.945Z,93.38
2023-05-15T19:56:14.167Z,93.20
2023-05-15T19:57:48.510Z,93.43
2023-05-15T19:59:20.689Z,93.33
2023-05-15T20:00:53.177Z,93.28
2023-05-15T20:02:25.385Z,93.49
2023-05-15T20:03:57.674Z,93.24
2023-05-15T20:05:30.096Z,93.32
2023-05-15T20:07:02.558Z,93.33
2023-05-15T20:08:34.850Z,93.54
2023-05-15T20:10:08.804Z,93.34
2023-05-15T20:11:40.933Z,93.43
2023-05-15T20:13:13.129Z,93.32
2023-05-15T20:14:52.219Z,93.13
2023-05-15T20:16:24.554Z,93.11
2023-05-15T20:17:56.745Z,93.15
2023-05-15T20:19:31.846Z,93.15
2023-05-15T20:21:04.216Z,93.23
2023-05-15T20:22:36.667Z,93.10
2023-05-15T20:24:08.888Z,93.09
2023-05-15T20:25:41.104Z,92.99
2023-05-15T20:27:13.336Z,92.85
2023-05-15T20:28:45.670Z,92.64
2023-05-15T20:30:17.926Z,92.70
2023-05-15T20:31:50.282Z,92.46
2023-05-15T20:33:22.564Z,92.60
2023-05-15T20:34:56.454Z,92.66
2023-05-15T20:36:28.617Z,92.67
2023-05-15T20:38:01.564Z,92.66
2023-05-15T20:39:35.022Z,92.55
2023-05-15T20:41:07.291Z,92.40
2023-05-15T20:42:40.163Z,92.52
2023-05-15T20:44:12.462Z,92.78
2023-05-15T20:45:44.681Z,92.87
2023-05-15T20:47:16.895Z,92.41
2023-05-15T20:48:49.009Z,92.54
2023-05-15T20:50:21.266Z,92.76
2023-05-15T20:51:53.498Z,92.98
2023-05-15T20:53:25.788Z,93.16
2023-05-15T20:54:57.920Z,93.13
2023-05-15T20:56:30.350Z,93.23
2023-05-15T20:58:02.711Z,93.38
2023-05-15T20:59:34.942Z,93.47
2023-05-15T21:01:07.070Z,93.25
2023-05-15T21:02:40.107Z,93.57
2023-05-15T21:04:12.320Z,93.61
2023-05-15T21:05:45.116Z,93.83
2023-05-15T21:07:19.914Z,93.65
2023-05-15T21:08:52.376Z,93.38
2023-05-15T21:10:24.610Z,93.45
2023-05-15T21:11:56.961Z,93.21
2023-05-15T21:13:29.101Z,93.34
2023-05-15T21:15:02.266Z,93.15
2023-05-15T21:16:34.473Z,93.42
2023-05-15T21:18:06.732Z,93.26
2023-05-15T21:19:38.925Z,93.31
2023-05-15T21:21:11.248Z,93.53
2023-05-15T21:22:43.360Z,93.58
2023-05-15T21:24:17.108Z,93.69
2023-05-15T21:25:49.263Z,93.95
2023-05-15T21:27:21.423Z,93.99
2023-05-15T21:28:53.528Z,94.09
2023-05-15T21:30:25.825Z,93.59
2023-05-15T21:31:58.608Z,93.42
2023-05-15T21:33:30.712Z,93.31
2023-05-15T21:35:02.801Z,93.34
2023-05-15T21:36:35.498Z,93.56
2023-05-15T21:38:07.624Z,93.71
2023-05-15T21:39:39.694Z,93.64
2023-05-15T21:41:12.285Z,93.73
2023-05-15T21:42:44.522Z,93.83
2023-05-15T21:44:16.562Z,93.83
2023-05-15T21:45:48.625Z,93.55
2023-05-15T21:47:20.932Z,93.90